sensor_id;sensor_type;location;lat;lon;timestamp;temperature;humidity
5870;DHT22;2961;47.702;9.410;2022-12-18T00:02:05;-4.10;99.90
5870;DHT22;2961;47.702;9.410;2022-12-18T00:04:34;-4.10;99.90
5870;DHT22;2961;47.702;9.410;2022-12-18T00:07:00;-4.10;99.90
5870;DHT22;2961;47.702;9.410;2022-12-18T00:09:27;-4.00;99.90
5870;DHT22;2961;47.702;9.410;2022-12-18T00:11:54;-4.00;99.90
5870;DHT22;2961;47.702;9.410;2022-12-18T00:14:21;-4.10;99.90
5870;DHT22;2961;47.702;9.410;2022-12-18T00:16:47;-4.10;99.90
5870;DHT22;2961;47.702;9.410;2022-12-18T00:19:14;-4.10;99.90
5870;DHT22;2961;47.702;9.410;2022-12-18T00:21:43;-4.10;99.90
5870;DHT22;2961;47.702;9.410;2022-12-18T00:24:10;-4.10;99.90
5870;DHT22;2961;47.702;9.410;2022-12-18T00:26:38;-4.00;99.90
5870;DHT22;2961;47.702;9.410;2022-12-18T00:29:07;-4.00;99.90
5870;DHT22;2961;47.702;9.410;2022-12-18T00:31:35;-4.00;99.90
5870;DHT22;2961;47.702;9.410;2022-12-18T00:34:02;-4.00;99.90
5870;DHT22;2961;47.702;9.410;2022-12-18T00:36:31;-3.90;99.90
5870;DHT22;2961;47.702;9.410;2022-12-18T00:39:01;-4.00;99.90
5870;DHT22;2961;47.702;9.410;2022-12-18T00:41:28;-3.80;99.90
5870;DHT22;2961;47.702;9.410;2022-12-18T00:44:14;-3.80;99.90
5870;DHT22;2961;47.702;9.410;2022-12-18T00:46:42;-3.80;99.90
5870;DHT22;2961;47.702;9.410;2022-12-18T00:49:13;-3.90;99.90
5870;DHT22;2961;47.702;9.410;2022-12-18T00:51:40;-3.90;99.90
5870;DHT22;2961;47.702;9.410;2022-12-18T00:54:08;-3.90;99.90
5870;DHT22;2961;47.702;9.410;2022-12-18T00:56:36;-3.90;99.90
5870;DHT22;2961;47.702;9.410;2022-12-18T00:59:03;-3.90;99.90
5870;DHT22;2961;47.702;9.410;2022-12-18T01:01:30;-3.90;99.90
5870;DHT22;2961;47.702;9.410;2022-12-18T01:03:58;-3.90;99.90
5870;DHT22;2961;47.702;9.410;2022-12-18T01:06:25;-3.80;99.90
5870;DHT22;2961;47.702;9.410;2022-12-18T01:08:52;-3.70;99.90
5870;DHT22;2961;47.702;9.410;2022-12-18T01:11:20;-3.60;99.90
5870;DHT22;2961;47.702;9.410;2022-12-18T01:13:47;-3.50;99.90
5870;DHT22;2961;47.702;9.410;2022-12-18T01:16:15;-3.50;99.90
5870;DHT22;2961;47.702;9.410;2022-12-18T01:18:43;-3.60;99.90
5870;DHT22;2961;47.702;9.410;2022-12-18T01:21:11;-3.60;99.90
5870;DHT22;2961;47.702;9.410;2022-12-18T01:23:38;-3.60;99.90
5870;DHT22;2961;47.702;9.410;2022-12-18T01:26:07;-3.60;99.90
5870;DHT22;2961;47.702;9.410;2022-12-18T01:28:35;-3.60;99.90
5870;DHT22;2961;47.702;9.410;2022-12-18T01:31:14;-3.70;99.90
5870;DHT22;2961;47.702;9.410;2022-12-18T01:33:41;-3.80;99.90
5870;DHT22;2961;47.702;9.410;2022-12-18T01:36:14;-3.80;99.90
5870;DHT22;2961;47.702;9.410;2022-12-18T01:38:40;-3.80;99.90
5870;DHT22;2961;47.702;9.410;2022-12-18T01:41:08;-3.80;99.90
5870;DHT22;2961;47.702;9.410;2022-12-18T01:43:45;-3.70;99.90
5870;DHT22;2961;47.702;9.410;2022-12-18T01:46:13;-3.70;99.90
5870;DHT22;2961;47.702;9.410;2022-12-18T01:48:41;-3.70;99.90
5870;DHT22;2961;47.702;9.410;2022-12-18T01:51:10;-3.80;99.90
5870;DHT22;2961;47.702;9.410;2022-12-18T01:53:37;-3.80;99.90
5870;DHT22;2961;47.702;9.410;2022-12-18T01:56:06;-3.80;99.90
5870;DHT22;2961;47.702;9.410;2022-12-18T01:58:37;-3.80;99.90
5870;DHT22;2961;47.702;9.410;2022-12-18T02:01:07;-3.90;99.90
5870;DHT22;2961;47.702;9.410;2022-12-18T02:03:34;-3.90;99.90
5870;DHT22;2961;47.702;9.410;2022-12-18T02:06:07;-3.90;99.90
5870;DHT22;2961;47.702;9.410;2022-12-18T02:08:43;-3.90;99.90
5870;DHT22;2961;47.702;9.410;2022-12-18T02:11:17;-3.90;99.90
5870;DHT22;2961;47.702;9.410;2022-12-18T02:13:49;-4.00;99.90
5870;DHT22;2961;47.702;9.410;2022-12-18T02:16:25;-4.00;99.90
5870;DHT22;2961;47.702;9.410;2022-12-18T02:18:58;-4.00;99.90
5870;DHT22;2961;47.702;9.410;2022-12-18T02:21:32;-4.00;99.90
5870;DHT22;2961;47.702;9.410;2022-12-18T02:24:13;-4.00;99.90
5870;DHT22;2961;47.702;9.410;2022-12-18T02:26:46;-4.00;99.90
5870;DHT22;2961;47.702;9.410;2022-12-18T02:29:16;-4.10;99.90
5870;DHT22;2961;47.702;9.410;2022-12-18T02:31:49;-4.10;99.90
5870;DHT22;2961;47.702;9.410;2022-12-18T02:34:18;-4.10;99.90
5870;DHT22;2961;47.702;9.410;2022-12-18T02:36:47;-4.10;99.90
5870;DHT22;2961;47.702;9.410;2022-12-18T02:39:16;-4.10;99.90
5870;DHT22;2961;47.702;9.410;2022-12-18T02:41:45;-4.10;99.90
5870;DHT22;2961;47.702;9.410;2022-12-18T02:44:13;-4.10;99.90
5870;DHT22;2961;47.702;9.410;2022-12-18T02:46:42;-4.10;99.90
5870;DHT22;2961;47.702;9.410;2022-12-18T02:49:21;-4.10;99.90
5870;DHT22;2961;47.702;9.410;2022-12-18T02:51:53;-4.20;99.90
5870;DHT22;2961;47.702;9.410;2022-12-18T02:54:32;-4.10;99.90
5870;DHT22;2961;47.702;9.410;2022-12-18T02:57:10;-4.20;99.90
5870;DHT22;2961;47.702;9.410;2022-12-18T02:59:41;-4.20;99.90
5870;DHT22;2961;47.702;9.410;2022-12-18T03:02:19;-4.20;99.90
5870;DHT22;2961;47.702;9.410;2022-12-18T03:04:50;-4.20;99.90
5870;DHT22;2961;47.702;9.410;2022-12-18T03:07:23;-4.20;99.90
5870;DHT22;2961;47.702;9.410;2022-12-18T03:09:53;-4.20;99.90
5870;DHT22;2961;47.702;9.410;2022-12-18T03:12:27;-4.20;99.90
5870;DHT22;2961;47.702;9.410;2022-12-18T03:14:59;-4.20;99.90
5870;DHT22;2961;47.702;9.410;2022-12-18T03:17:30;-4.20;99.90
5870;DHT22;2961;47.702;9.410;2022-12-18T03:19:59;-4.20;99.90
5870;DHT22;2961;47.702;9.410;2022-12-18T03:22:30;-4.20;99.90
5870;DHT22;2961;47.702;9.410;2022-12-18T03:24:59;-4.20;99.90
5870;DHT22;2961;47.702;9.410;2022-12-18T03:27:30;-4.20;99.90
5870;DHT22;2961;47.702;9.410;2022-12-18T03:30:03;-4.20;99.90
5870;DHT22;2961;47.702;9.410;2022-12-18T03:32:38;-4.20;99.90
5870;DHT22;2961;47.702;9.410;2022-12-18T03:35:07;-4.20;99.90
5870;DHT22;2961;47.702;9.410;2022-12-18T03:37:35;-4.20;99.90
5870;DHT22;2961;47.702;9.410;2022-12-18T03:40:03;-4.20;99.90
5870;DHT22;2961;47.702;9.410;2022-12-18T03:42:37;-4.20;99.90
5870;DHT22;2961;47.702;9.410;2022-12-18T03:45:09;-4.20;99.90
5870;DHT22;2961;47.702;9.410;2022-12-18T03:47:41;-4.20;99.90
5870;DHT22;2961;47.702;9.410;2022-12-18T03:50:14;-4.20;99.90
5870;DHT22;2961;47.702;9.410;2022-12-18T03:52:47;-4.20;99.90
5870;DHT22;2961;47.702;9.410;2022-12-18T03:55:16;-4.20;99.90
5870;DHT22;2961;47.702;9.410;2022-12-18T03:57:45;-4.20;99.90
5870;DHT22;2961;47.702;9.410;2022-12-18T04:00:14;-4.20;99.90
5870;DHT22;2961;47.702;9.410;2022-12-18T04:02:44;-4.20;99.90
5870;DHT22;2961;47.702;9.410;2022-12-18T04:05:12;-4.20;99.90
5870;DHT22;2961;47.702;9.410;2022-12-18T04:07:40;-4.20;99.90
5870;DHT22;2961;47.702;9.410;2022-12-18T04:10:09;-4.20;99.90
5870;DHT22;2961;47.702;9.410;2022-12-18T04:12:37;-4.20;99.90
5870;DHT22;2961;47.702;9.410;2022-12-18T04:15:07;-4.30;99.90
5870;DHT22;2961;47.702;9.410;2022-12-18T04:17:34;-4.30;99.90
5870;DHT22;2961;47.702;9.410;2022-12-18T04:20:01;-4.30;99.90
5870;DHT22;2961;47.702;9.410;2022-12-18T04:22:28;-4.30;99.90
5870;DHT22;2961;47.702;9.410;2022-12-18T04:24:54;-4.30;99.90
5870;DHT22;2961;47.702;9.410;2022-12-18T04:27:21;-4.30;99.90
5870;DHT22;2961;47.702;9.410;2022-12-18T04:29:48;-4.30;99.90
5870;DHT22;2961;47.702;9.410;2022-12-18T04:32:16;-4.30;99.90
5870;DHT22;2961;47.702;9.410;2022-12-18T04:34:43;-4.30;99.90
5870;DHT22;2961;47.702;9.410;2022-12-18T04:37:10;-4.40;99.90
5870;DHT22;2961;47.702;9.410;2022-12-18T04:39:36;-4.40;99.90
5870;DHT22;2961;47.702;9.410;2022-12-18T04:42:03;-4.40;99.90
5870;DHT22;2961;47.702;9.410;2022-12-18T04:44:30;-4.40;99.90
5870;DHT22;2961;47.702;9.410;2022-12-18T04:46:57;-4.40;99.90
5870;DHT22;2961;47.702;9.410;2022-12-18T04:49:25;-4.40;99.90
5870;DHT22;2961;47.702;9.410;2022-12-18T04:51:52;-4.40;99.90
5870;DHT22;2961;47.702;9.410;2022-12-18T04:54:18;-4.50;99.90
5870;DHT22;2961;47.702;9.410;2022-12-18T04:56:45;-4.50;99.90
5870;DHT22;2961;47.702;9.410;2022-12-18T04:59:12;-4.60;99.90
5870;DHT22;2961;47.702;9.410;2022-12-18T05:01:39;-4.60;99.90
5870;DHT22;2961;47.702;9.410;2022-12-18T05:04:05;-4.60;99.90
5870;DHT22;2961;47.702;9.410;2022-12-18T05:06:33;-4.60;99.90
5870;DHT22;2961;47.702;9.410;2022-12-18T05:09:00;-4.60;99.90
5870;DHT22;2961;47.702;9.410;2022-12-18T05:11:27;-4.60;99.90
5870;DHT22;2961;47.702;9.410;2022-12-18T05:13:54;-4.60;99.90
5870;DHT22;2961;47.702;9.410;2022-12-18T05:16:20;-4.60;99.90
5870;DHT22;2961;47.702;9.410;2022-12-18T05:18:48;-4.60;99.90
5870;DHT22;2961;47.702;9.410;2022-12-18T05:21:15;-4.60;99.90
5870;DHT22;2961;47.702;9.410;2022-12-18T05:23:43;-4.60;99.90
5870;DHT22;2961;47.702;9.410;2022-12-18T05:26:15;-4.60;99.90
5870;DHT22;2961;47.702;9.410;2022-12-18T05:28:42;-4.60;99.90
5870;DHT22;2961;47.702;9.410;2022-12-18T05:31:09;-4.70;99.90
5870;DHT22;2961;47.702;9.410;2022-12-18T05:33:36;-4.70;99.90
5870;DHT22;2961;47.702;9.410;2022-12-18T05:36:05;-4.70;99.90
5870;DHT22;2961;47.702;9.410;2022-12-18T05:38:33;-4.70;99.90
5870;DHT22;2961;47.702;9.410;2022-12-18T05:41:02;-4.70;99.90
5870;DHT22;2961;47.702;9.410;2022-12-18T05:43:30;-4.70;99.90
5870;DHT22;2961;47.702;9.410;2022-12-18T05:45:57;-4.70;99.90
5870;DHT22;2961;47.702;9.410;2022-12-18T05:48:24;-4.70;99.90
5870;DHT22;2961;47.702;9.410;2022-12-18T05:50:50;-4.70;99.90
5870;DHT22;2961;47.702;9.410;2022-12-18T05:53:19;-4.70;99.90
5870;DHT22;2961;47.702;9.410;2022-12-18T05:55:47;-4.70;99.90
5870;DHT22;2961;47.702;9.410;2022-12-18T05:58:15;-4.70;99.90
5870;DHT22;2961;47.702;9.410;2022-12-18T06:00:44;-4.70;99.90
5870;DHT22;2961;47.702;9.410;2022-12-18T06:03:11;-4.70;99.90
5870;DHT22;2961;47.702;9.410;2022-12-18T06:05:40;-4.70;99.90
5870;DHT22;2961;47.702;9.410;2022-12-18T06:08:08;-4.70;99.90
5870;DHT22;2961;47.702;9.410;2022-12-18T06:10:35;-4.70;99.90
5870;DHT22;2961;47.702;9.410;2022-12-18T06:13:02;-4.70;99.90
5870;DHT22;2961;47.702;9.410;2022-12-18T06:15:30;-4.70;99.90
5870;DHT22;2961;47.702;9.410;2022-12-18T06:17:57;-4.70;99.90
5870;DHT22;2961;47.702;9.410;2022-12-18T06:20:24;-4.70;99.90
5870;DHT22;2961;47.702;9.410;2022-12-18T06:22:50;-4.70;99.90
5870;DHT22;2961;47.702;9.410;2022-12-18T06:25:18;-4.70;99.90
5870;DHT22;2961;47.702;9.410;2022-12-18T06:27:47;-4.70;99.90
5870;DHT22;2961;47.702;9.410;2022-12-18T06:30:14;-4.70;99.90
5870;DHT22;2961;47.702;9.410;2022-12-18T06:32:42;-4.70;99.90
5870;DHT22;2961;47.702;9.410;2022-12-18T06:35:09;-4.70;99.90
5870;DHT22;2961;47.702;9.410;2022-12-18T06:37:36;-4.70;99.90
5870;DHT22;2961;47.702;9.410;2022-12-18T06:40:03;-4.70;99.90
5870;DHT22;2961;47.702;9.410;2022-12-18T06:42:30;-4.70;99.90
5870;DHT22;2961;47.702;9.410;2022-12-18T06:44:57;-4.70;99.90
5870;DHT22;2961;47.702;9.410;2022-12-18T06:47:24;-4.70;99.90
5870;DHT22;2961;47.702;9.410;2022-12-18T06:49:52;-4.70;99.90
5870;DHT22;2961;47.702;9.410;2022-12-18T06:52:19;-4.70;99.90
5870;DHT22;2961;47.702;9.410;2022-12-18T06:54:46;-4.70;99.90
5870;DHT22;2961;47.702;9.410;2022-12-18T06:57:12;-4.70;99.90
5870;DHT22;2961;47.702;9.410;2022-12-18T06:59:39;-4.70;99.90
5870;DHT22;2961;47.702;9.410;2022-12-18T07:02:06;-4.80;99.90
5870;DHT22;2961;47.702;9.410;2022-12-18T07:04:33;-4.70;99.90
5870;DHT22;2961;47.702;9.410;2022-12-18T07:07:01;-4.70;99.90
5870;DHT22;2961;47.702;9.410;2022-12-18T07:09:27;-4.70;99.90
5870;DHT22;2961;47.702;9.410;2022-12-18T07:11:54;-4.70;99.90
5870;DHT22;2961;47.702;9.410;2022-12-18T07:14:21;-4.70;99.90
5870;DHT22;2961;47.702;9.410;2022-12-18T07:16:48;-4.60;99.90
5870;DHT22;2961;47.702;9.410;2022-12-18T07:19:14;-4.60;99.90
5870;DHT22;2961;47.702;9.410;2022-12-18T07:21:41;-4.50;99.90
5870;DHT22;2961;47.702;9.410;2022-12-18T07:24:09;-4.50;99.90
5870;DHT22;2961;47.702;9.410;2022-12-18T07:26:36;-4.40;99.90
5870;DHT22;2961;47.702;9.410;2022-12-18T07:29:03;-4.40;99.90
5870;DHT22;2961;47.702;9.410;2022-12-18T07:31:30;-4.40;99.90
5870;DHT22;2961;47.702;9.410;2022-12-18T07:33:56;-4.30;99.90
5870;DHT22;2961;47.702;9.410;2022-12-18T07:36:23;-4.30;99.90
5870;DHT22;2961;47.702;9.410;2022-12-18T07:38:50;-4.30;99.90
5870;DHT22;2961;47.702;9.410;2022-12-18T07:41:19;-4.30;99.90
5870;DHT22;2961;47.702;9.410;2022-12-18T07:43:46;-4.20;99.90
5870;DHT22;2961;47.702;9.410;2022-12-18T07:46:15;-4.30;99.90
5870;DHT22;2961;47.702;9.410;2022-12-18T07:48:43;-4.20;99.90
5870;DHT22;2961;47.702;9.410;2022-12-18T07:51:10;-4.20;99.90
5870;DHT22;2961;47.702;9.410;2022-12-18T07:53:36;-4.20;99.90
5870;DHT22;2961;47.702;9.410;2022-12-18T07:56:05;-4.10;99.90
5870;DHT22;2961;47.702;9.410;2022-12-18T07:58:34;-4.10;99.90
5870;DHT22;2961;47.702;9.410;2022-12-18T08:01:05;-4.00;99.90
5870;DHT22;2961;47.702;9.410;2022-12-18T08:03:32;-4.00;99.90
5870;DHT22;2961;47.702;9.410;2022-12-18T08:06:00;-4.00;99.90
5870;DHT22;2961;47.702;9.410;2022-12-18T08:08:27;-4.00;99.90
5870;DHT22;2961;47.702;9.410;2022-12-18T08:10:54;-3.90;99.90
5870;DHT22;2961;47.702;9.410;2022-12-18T08:13:21;-3.80;99.90
5870;DHT22;2961;47.702;9.410;2022-12-18T08:15:56;-3.80;99.90
5870;DHT22;2961;47.702;9.410;2022-12-18T08:18:23;-3.80;99.90
5870;DHT22;2961;47.702;9.410;2022-12-18T08:20:50;-3.80;99.90
5870;DHT22;2961;47.702;9.410;2022-12-18T08:23:17;-3.80;99.90
5870;DHT22;2961;47.702;9.410;2022-12-18T08:25:44;-3.70;99.90
5870;DHT22;2961;47.702;9.410;2022-12-18T08:28:11;-3.70;99.90
5870;DHT22;2961;47.702;9.410;2022-12-18T08:30:38;-3.60;99.90
5870;DHT22;2961;47.702;9.410;2022-12-18T08:33:06;-3.50;99.90
5870;DHT22;2961;47.702;9.410;2022-12-18T08:35:35;-3.40;99.90
5870;DHT22;2961;47.702;9.410;2022-12-18T08:38:02;-3.40;99.90
5870;DHT22;2961;47.702;9.410;2022-12-18T08:40:29;-3.40;99.90
5870;DHT22;2961;47.702;9.410;2022-12-18T08:42:55;-3.40;99.90
5870;DHT22;2961;47.702;9.410;2022-12-18T08:45:40;-3.30;99.90
5870;DHT22;2961;47.702;9.410;2022-12-18T08:48:08;-3.40;99.90
5870;DHT22;2961;47.702;9.410;2022-12-18T08:50:35;-3.30;99.90
5870;DHT22;2961;47.702;9.410;2022-12-18T08:53:02;-3.30;99.90
5870;DHT22;2961;47.702;9.410;2022-12-18T08:55:29;-3.30;99.90
5870;DHT22;2961;47.702;9.410;2022-12-18T08:57:55;-3.20;99.90
5870;DHT22;2961;47.702;9.410;2022-12-18T09:00:22;-3.10;99.90
5870;DHT22;2961;47.702;9.410;2022-12-18T09:02:49;-3.20;99.90
5870;DHT22;2961;47.702;9.410;2022-12-18T09:05:17;-3.20;99.90
5870;DHT22;2961;47.702;9.410;2022-12-18T09:07:44;-3.10;99.90
5870;DHT22;2961;47.702;9.410;2022-12-18T09:10:10;-3.10;99.90
5870;DHT22;2961;47.702;9.410;2022-12-18T09:12:37;-3.00;99.90
5870;DHT22;2961;47.702;9.410;2022-12-18T09:15:05;-2.90;99.90
5870;DHT22;2961;47.702;9.410;2022-12-18T09:17:32;-2.80;99.90
5870;DHT22;2961;47.702;9.410;2022-12-18T09:19:59;-2.80;99.90
5870;DHT22;2961;47.702;9.410;2022-12-18T09:22:27;-2.80;99.90
5870;DHT22;2961;47.702;9.410;2022-12-18T09:24:53;-2.80;99.90
5870;DHT22;2961;47.702;9.410;2022-12-18T09:27:20;-2.80;99.90
5870;DHT22;2961;47.702;9.410;2022-12-18T09:29:47;-2.80;99.90
5870;DHT22;2961;47.702;9.410;2022-12-18T09:32:14;-2.90;99.90
5870;DHT22;2961;47.702;9.410;2022-12-18T09:34:40;-2.80;99.90
5870;DHT22;2961;47.702;9.410;2022-12-18T09:43:00;-2.70;99.90
5870;DHT22;2961;47.702;9.410;2022-12-18T09:45:27;-2.70;99.90
5870;DHT22;2961;47.702;9.410;2022-12-18T09:47:57;-2.80;99.90
5870;DHT22;2961;47.702;9.410;2022-12-18T09:50:29;-2.80;99.90
5870;DHT22;2961;47.702;9.410;2022-12-18T09:52:58;-2.70;99.90
5870;DHT22;2961;47.702;9.410;2022-12-18T09:55:31;-2.70;99.90
5870;DHT22;2961;47.702;9.410;2022-12-18T09:58:04;-2.70;99.90
5870;DHT22;2961;47.702;9.410;2022-12-18T10:00:33;-2.70;99.90
5870;DHT22;2961;47.702;9.410;2022-12-18T10:03:02;-2.70;99.90
5870;DHT22;2961;47.702;9.410;2022-12-18T10:05:35;-2.70;99.90
5870;DHT22;2961;47.702;9.410;2022-12-18T10:08:07;-2.70;99.90
5870;DHT22;2961;47.702;9.410;2022-12-18T10:10:43;-2.60;99.90
5870;DHT22;2961;47.702;9.410;2022-12-18T10:13:21;-2.60;99.90
5870;DHT22;2961;47.702;9.410;2022-12-18T10:15:59;-2.60;99.90
5870;DHT22;2961;47.702;9.410;2022-12-18T10:18:38;-2.60;99.90
5870;DHT22;2961;47.702;9.410;2022-12-18T10:21:12;-2.60;99.90
5870;DHT22;2961;47.702;9.410;2022-12-18T10:23:47;-2.60;99.90
5870;DHT22;2961;47.702;9.410;2022-12-18T10:26:21;-2.50;99.90
5870;DHT22;2961;47.702;9.410;2022-12-18T10:28:48;-2.50;99.90
5870;DHT22;2961;47.702;9.410;2022-12-18T10:31:17;-2.40;99.90
5870;DHT22;2961;47.702;9.410;2022-12-18T10:33:44;-2.30;99.90
5870;DHT22;2961;47.702;9.410;2022-12-18T10:36:11;-2.20;99.90
5870;DHT22;2961;47.702;9.410;2022-12-18T10:38:38;-2.20;99.90
5870;DHT22;2961;47.702;9.410;2022-12-18T10:41:08;-2.20;99.90
5870;DHT22;2961;47.702;9.410;2022-12-18T10:44:11;-2.10;99.90
5870;DHT22;2961;47.702;9.410;2022-12-18T10:46:39;-2.10;99.90
5870;DHT22;2961;47.702;9.410;2022-12-18T10:49:17;-2.10;99.90
5870;DHT22;2961;47.702;9.410;2022-12-18T10:51:44;-2.20;99.90
5870;DHT22;2961;47.702;9.410;2022-12-18T10:54:15;-2.10;99.90
5870;DHT22;2961;47.702;9.410;2022-12-18T10:56:43;-2.00;99.90
5870;DHT22;2961;47.702;9.410;2022-12-18T10:59:12;-2.00;99.90
5870;DHT22;2961;47.702;9.410;2022-12-18T11:01:50;-2.00;99.90
5870;DHT22;2961;47.702;9.410;2022-12-18T11:04:20;-1.90;99.90
5870;DHT22;2961;47.702;9.410;2022-12-18T11:06:56;-2.00;99.90
5870;DHT22;2961;47.702;9.410;2022-12-18T11:09:24;-1.90;99.90
5870;DHT22;2961;47.702;9.410;2022-12-18T11:11:53;-1.90;99.90
5870;DHT22;2961;47.702;9.410;2022-12-18T11:14:23;-1.90;99.90
5870;DHT22;2961;47.702;9.410;2022-12-18T11:16:52;-1.80;99.90
5870;DHT22;2961;47.702;9.410;2022-12-18T11:19:26;-1.80;99.90
5870;DHT22;2961;47.702;9.410;2022-12-18T11:21:55;-1.80;99.90
5870;DHT22;2961;47.702;9.410;2022-12-18T11:24:27;-1.80;99.90
5870;DHT22;2961;47.702;9.410;2022-12-18T11:26:55;-1.70;99.90
5870;DHT22;2961;47.702;9.410;2022-12-18T11:29:29;-1.60;99.90
5870;DHT22;2961;47.702;9.410;2022-12-18T11:35:11;-1.50;99.90
5870;DHT22;2961;47.702;9.410;2022-12-18T11:38:02;-1.50;99.90
5870;DHT22;2961;47.702;9.410;2022-12-18T11:40:35;-1.50;99.90
5870;DHT22;2961;47.702;9.410;2022-12-18T11:43:06;-1.50;99.90
5870;DHT22;2961;47.702;9.410;2022-12-18T11:45:41;-1.50;99.90
5870;DHT22;2961;47.702;9.410;2022-12-18T11:48:16;-1.50;99.90
5870;DHT22;2961;47.702;9.410;2022-12-18T11:50:48;-1.50;99.90
5870;DHT22;2961;47.702;9.410;2022-12-18T11:53:16;-1.40;99.90
5870;DHT22;2961;47.702;9.410;2022-12-18T11:55:52;-1.40;99.90
5870;DHT22;2961;47.702;9.410;2022-12-18T11:58:39;-1.40;99.90
5870;DHT22;2961;47.702;9.410;2022-12-18T12:01:16;-1.40;99.90
5870;DHT22;2961;47.702;9.410;2022-12-18T12:03:59;-1.40;99.90
5870;DHT22;2961;47.702;9.410;2022-12-18T12:06:37;-1.40;99.90
5870;DHT22;2961;47.702;9.410;2022-12-18T12:09:11;-1.40;99.90
5870;DHT22;2961;47.702;9.410;2022-12-18T12:11:49;-1.40;99.90
5870;DHT22;2961;47.702;9.410;2022-12-18T12:14:28;-1.40;99.90
5870;DHT22;2961;47.702;9.410;2022-12-18T12:17:08;-1.40;99.90
5870;DHT22;2961;47.702;9.410;2022-12-18T12:19:44;-1.40;99.90
5870;DHT22;2961;47.702;9.410;2022-12-18T12:22:21;-1.50;99.90
5870;DHT22;2961;47.702;9.410;2022-12-18T12:24:59;-1.50;99.90
5870;DHT22;2961;47.702;9.410;2022-12-18T12:27:35;-1.70;99.90
5870;DHT22;2961;47.702;9.410;2022-12-18T12:30:08;-1.80;99.90
5870;DHT22;2961;47.702;9.410;2022-12-18T12:32:46;-1.80;99.90
5870;DHT22;2961;47.702;9.410;2022-12-18T12:35:27;-1.80;99.90
5870;DHT22;2961;47.702;9.410;2022-12-18T12:38:04;-1.80;99.90
5870;DHT22;2961;47.702;9.410;2022-12-18T12:40:34;-1.70;99.90
5870;DHT22;2961;47.702;9.410;2022-12-18T12:43:07;-1.70;99.90
5870;DHT22;2961;47.702;9.410;2022-12-18T12:45:42;-1.80;99.90
5870;DHT22;2961;47.702;9.410;2022-12-18T12:48:17;-1.70;99.90
5870;DHT22;2961;47.702;9.410;2022-12-18T12:50:46;-1.70;99.90
5870;DHT22;2961;47.702;9.410;2022-12-18T12:53:22;-1.80;99.90
5870;DHT22;2961;47.702;9.410;2022-12-18T12:55:50;-1.80;99.90
5870;DHT22;2961;47.702;9.410;2022-12-18T12:58:24;-1.80;99.90
5870;DHT22;2961;47.702;9.410;2022-12-18T13:00:59;-1.90;99.90
5870;DHT22;2961;47.702;9.410;2022-12-18T13:03:35;-1.90;99.90
5870;DHT22;2961;47.702;9.410;2022-12-18T13:06:07;-2.00;99.90
5870;DHT22;2961;47.702;9.410;2022-12-18T13:08:53;-2.00;99.90
5870;DHT22;2961;47.702;9.410;2022-12-18T13:11:34;-2.10;99.90
5870;DHT22;2961;47.702;9.410;2022-12-18T13:14:25;-2.10;99.90
5870;DHT22;2961;47.702;9.410;2022-12-18T13:17:28;-2.20;99.90
5870;DHT22;2961;47.702;9.410;2022-12-18T13:20:13;-2.10;99.90
5870;DHT22;2961;47.702;9.410;2022-12-18T13:22:43;-2.10;99.90
5870;DHT22;2961;47.702;9.410;2022-12-18T13:25:32;-2.00;99.90
5870;DHT22;2961;47.702;9.410;2022-12-18T13:28:10;-2.00;99.90
5870;DHT22;2961;47.702;9.410;2022-12-18T13:30:50;-2.10;99.90
5870;DHT22;2961;47.702;9.410;2022-12-18T13:33:38;-2.10;99.90
5870;DHT22;2961;47.702;9.410;2022-12-18T13:39:22;-2.20;99.90
5870;DHT22;2961;47.702;9.410;2022-12-18T13:41:51;-2.20;99.90
5870;DHT22;2961;47.702;9.410;2022-12-18T13:44:26;-2.20;99.90
5870;DHT22;2961;47.702;9.410;2022-12-18T13:46:55;-2.20;99.90
5870;DHT22;2961;47.702;9.410;2022-12-18T13:49:25;-2.20;99.90
5870;DHT22;2961;47.702;9.410;2022-12-18T13:51:55;-2.30;99.90
5870;DHT22;2961;47.702;9.410;2022-12-18T13:54:27;-2.20;99.90
5870;DHT22;2961;47.702;9.410;2022-12-18T13:56:56;-2.20;99.90
5870;DHT22;2961;47.702;9.410;2022-12-18T13:59:25;-2.20;99.90
5870;DHT22;2961;47.702;9.410;2022-12-18T14:01:54;-2.20;99.90
5870;DHT22;2961;47.702;9.410;2022-12-18T14:04:26;-2.10;99.90
5870;DHT22;2961;47.702;9.410;2022-12-18T14:06:58;-2.10;99.90
5870;DHT22;2961;47.702;9.410;2022-12-18T14:09:30;-2.10;99.90
5870;DHT22;2961;47.702;9.410;2022-12-18T14:11:57;-2.10;99.90
5870;DHT22;2961;47.702;9.410;2022-12-18T14:14:41;-2.10;99.90
5870;DHT22;2961;47.702;9.410;2022-12-18T14:17:10;-2.10;99.90
5870;DHT22;2961;47.702;9.410;2022-12-18T14:19:40;-2.10;99.90
5870;DHT22;2961;47.702;9.410;2022-12-18T14:22:14;-2.00;99.90
5870;DHT22;2961;47.702;9.410;2022-12-18T14:24:41;-2.10;99.90
5870;DHT22;2961;47.702;9.410;2022-12-18T14:27:19;-2.00;99.90
5870;DHT22;2961;47.702;9.410;2022-12-18T14:29:46;-2.00;99.90
5870;DHT22;2961;47.702;9.410;2022-12-18T14:32:14;-2.20;99.90
5870;DHT22;2961;47.702;9.410;2022-12-18T14:34:43;-2.10;99.90
5870;DHT22;2961;47.702;9.410;2022-12-18T14:37:14;-2.20;99.90
5870;DHT22;2961;47.702;9.410;2022-12-18T14:39:40;-2.10;99.90
5870;DHT22;2961;47.702;9.410;2022-12-18T14:42:18;-2.10;99.90
5870;DHT22;2961;47.702;9.410;2022-12-18T14:44:44;-2.20;99.90
5870;DHT22;2961;47.702;9.410;2022-12-18T14:47:14;-2.20;99.90
5870;DHT22;2961;47.702;9.410;2022-12-18T14:49:42;-2.10;99.90
5870;DHT22;2961;47.702;9.410;2022-12-18T14:52:21;-2.10;99.90
5870;DHT22;2961;47.702;9.410;2022-12-18T14:54:49;-2.00;99.90
5870;DHT22;2961;47.702;9.410;2022-12-18T14:57:21;-2.10;99.90
5870;DHT22;2961;47.702;9.410;2022-12-18T14:59:48;-2.10;99.90
5870;DHT22;2961;47.702;9.410;2022-12-18T15:02:20;-2.20;99.90
5870;DHT22;2961;47.702;9.410;2022-12-18T15:04:48;-2.30;99.90
5870;DHT22;2961;47.702;9.410;2022-12-18T15:07:38;-2.30;99.90
5870;DHT22;2961;47.702;9.410;2022-12-18T15:10:11;-2.30;99.90
5870;DHT22;2961;47.702;9.410;2022-12-18T15:12:40;-2.40;99.90
5870;DHT22;2961;47.702;9.410;2022-12-18T15:18:13;-2.50;99.90
5870;DHT22;2961;47.702;9.410;2022-12-18T15:20:43;-2.50;99.90
5870;DHT22;2961;47.702;9.410;2022-12-18T15:23:20;-2.50;99.90
5870;DHT22;2961;47.702;9.410;2022-12-18T15:25:49;-2.50;99.90
5870;DHT22;2961;47.702;9.410;2022-12-18T15:28:23;-2.50;99.90
5870;DHT22;2961;47.702;9.410;2022-12-18T15:30:59;-2.60;99.90
5870;DHT22;2961;47.702;9.410;2022-12-18T15:33:29;-2.60;99.90
5870;DHT22;2961;47.702;9.410;2022-12-18T15:35:57;-2.60;99.90
5870;DHT22;2961;47.702;9.410;2022-12-18T15:38:25;-2.60;99.90
5870;DHT22;2961;47.702;9.410;2022-12-18T15:40:53;-2.60;99.90
5870;DHT22;2961;47.702;9.410;2022-12-18T15:43:22;-2.70;99.90
5870;DHT22;2961;47.702;9.410;2022-12-18T15:46:04;-2.70;99.90
5870;DHT22;2961;47.702;9.410;2022-12-18T15:48:39;-2.70;99.90
5870;DHT22;2961;47.702;9.410;2022-12-18T15:51:13;-2.80;99.90
5870;DHT22;2961;47.702;9.410;2022-12-18T15:53:43;-2.80;99.90
5870;DHT22;2961;47.702;9.410;2022-12-18T15:56:11;-2.80;99.90
5870;DHT22;2961;47.702;9.410;2022-12-18T15:58:55;-2.80;99.90
5870;DHT22;2961;47.702;9.410;2022-12-18T16:01:23;-2.90;99.90
5870;DHT22;2961;47.702;9.410;2022-12-18T16:03:51;-2.90;99.90
5870;DHT22;2961;47.702;9.410;2022-12-18T16:06:18;-2.90;99.90
5870;DHT22;2961;47.702;9.410;2022-12-18T16:08:47;-2.90;99.90
5870;DHT22;2961;47.702;9.410;2022-12-18T16:11:21;-2.90;99.90
5870;DHT22;2961;47.702;9.410;2022-12-18T16:14:04;-2.90;99.90
5870;DHT22;2961;47.702;9.410;2022-12-18T16:16:31;-2.90;99.90
5870;DHT22;2961;47.702;9.410;2022-12-18T16:18:57;-3.00;99.90
5870;DHT22;2961;47.702;9.410;2022-12-18T16:21:24;-3.00;99.90
5870;DHT22;2961;47.702;9.410;2022-12-18T16:23:52;-3.00;99.90
5870;DHT22;2961;47.702;9.410;2022-12-18T16:26:19;-3.10;99.90
5870;DHT22;2961;47.702;9.410;2022-12-18T16:28:46;-3.10;99.90
5870;DHT22;2961;47.702;9.410;2022-12-18T16:31:12;-3.10;99.90
5870;DHT22;2961;47.702;9.410;2022-12-18T16:33:39;-3.10;99.90
5870;DHT22;2961;47.702;9.410;2022-12-18T16:36:07;-3.10;99.90
5870;DHT22;2961;47.702;9.410;2022-12-18T16:38:33;-3.10;99.90